Time;durP1;ratioP1;P1;durP2;ratioP2;P2;SDS_P1;SDS_P2;PMS_P1;PMS_P2;Temp;Humidity;BMP_temperature;BMP_pressure;BME280_temperature;BME280_humidity;BME280_pressure;Samples;Min_cycle;Max_cycle;Signal;HPM_P1;HPM_P2
2022/10/23 00:00:49;;;;;;;15.63;11.43;;;;;;;18.77;53.91;101957.66;143715;962;47006;-70
2022/10/23 00:03:16;;;;;;;13.30;11.60;;;;;;;18.77;54.39;101948.63;143714;860;47002;-71
2022/10/23 00:05:42;;;;;;;19.70;12.27;;;;;;;18.77;54.41;101954.09;143715;569;47009;-70
2022/10/23 00:08:09;;;;;;;15.25;12.30;;;;;;;18.75;54.72;101951.59;143713;585;47004;-70
2022/10/23 00:10:35;;;;;;;17.87;13.15;;;;;;;18.73;54.56;101947.41;143716;766;47006;-70
2022/10/23 00:13:01;;;;;;;17.17;12.05;;;;;;;18.73;54.13;101956.44;143717;613;47000;-70
2022/10/23 00:15:28;;;;;;;16.50;12.55;;;;;;;18.72;53.81;101954.75;143713;823;47011;-70
2022/10/23 00:17:54;;;;;;;16.77;12.27;;;;;;;18.67;54.33;101949.16;143708;566;50002;-70
2022/10/23 00:20:20;;;;;;;14.07;12.68;;;;;;;18.69;53.79;101946.22;143717;598;47000;-70
2022/10/23 00:22:47;;;;;;;16.12;12.43;;;;;;;18.66;54.46;101958.34;143716;591;47002;-70
2022/10/23 00:25:15;;;;;;;17.65;12.23;;;;;;;18.61;54.15;101948.16;143715;670;47010;-70
2022/10/23 00:27:41;;;;;;;17.42;12.55;;;;;;;18.60;54.19;101951.09;143715;594;47003;-71
2022/10/23 00:30:08;;;;;;;15.20;12.02;;;;;;;18.56;53.67;101945.25;143714;627;47004;-70
2022/10/23 00:32:35;;;;;;;20.12;12.32;;;;;;;18.55;54.08;101946.31;143716;744;47004;-70
2022/10/23 00:35:02;;;;;;;19.90;12.60;;;;;;;18.55;54.04;101946.31;143715;570;47010;-70
2022/10/23 00:37:28;;;;;;;14.93;12.40;;;;;;;18.55;53.44;101948.22;143715;594;47004;-70
2022/10/23 00:39:55;;;;;;;15.07;11.80;;;;;;;18.57;53.15;101943.38;143717;979;47006;-70
2022/10/23 00:42:21;;;;;;;15.13;11.30;;;;;;;18.58;53.31;101945.87;143719;984;47000;-71
2022/10/23 00:45:13;;;;;;;12.45;11.15;;;;;;;18.56;53.20;101952.59;143715;774;47008;-70
2022/10/23 00:47:40;;;;;;;14.65;11.15;;;;;;;18.48;52.98;101940.91;143714;892;47004;-71
2022/10/23 00:50:07;;;;;;;16.65;11.35;;;;;;;18.45;53.03;101938.63;143715;972;47006;-70
2022/10/23 00:52:38;;;;;;;18.73;11.10;;;;;;;18.47;53.02;101933.81;143714;934;47005;-70
2022/10/23 00:55:05;;;;;;;15.98;11.18;;;;;;;18.45;52.98;101922.31;143715;935;47010;-70
2022/10/23 00:57:31;;;;;;;18.15;11.60;;;;;;;18.43;53.29;101923.59;143714;573;47004;-70
2022/10/23 00:59:58;;;;;;;14.80;11.02;;;;;;;18.44;53.11;101925.28;143715;973;47006;-70
2022/10/23 01:02:24;;;;;;;15.95;11.55;;;;;;;18.45;53.20;101916.88;143714;593;47004;-70
2022/10/23 01:04:50;;;;;;;12.40;10.10;;;;;;;18.49;52.36;101911.84;143714;986;47009;-70
2022/10/23 01:07:35;;;;;;;14.57;10.50;;;;;;;18.45;52.41;101910.63;143715;688;47011;-70
2022/10/23 01:10:34;;;;;;;17.40;10.85;;;;;;;18.46;52.74;101918.53;143717;578;47006;-70
2022/10/23 01:13:10;;;;;;;12.18;10.80;;;;;;;18.47;52.36;101908.50;143713;901;47002;-70
2022/10/23 01:16:02;;;;;;;16.10;11.10;;;;;;;18.47;52.63;101914.78;143714;972;47008;-71
2022/10/23 01:19:05;;;;;;;16.08;11.43;;;;;;;18.44;52.90;101922.56;143714;644;47008;-70
2022/10/23 01:21:59;;;;;;;13.60;10.88;;;;;;;18.41;53.33;101932.00;143716;567;47006;-70
2022/10/23 01:24:53;;;;;;;11.43;10.03;;;;;;;18.42;53.30;101927.38;143716;973;47002;-70
2022/10/23 01:27:26;;;;;;;15.75;10.77;;;;;;;18.42;53.33;101927.38;143714;592;47010;-70
2022/10/23 01:30:19;;;;;;;13.07;10.35;;;;;;;18.41;53.87;101926.56;143715;652;47004;-70
2022/10/23 01:32:52;;;;;;;11.80;9.40;;;;;;;18.37;53.33;101935.37;143717;572;47006;-70
2022/10/23 01:35:28;;;;;;;11.02;9.05;;;;;;;18.36;53.74;101931.81;143715;573;47006;-71
2022/10/23 01:38:14;;;;;;;11.90;9.57;;;;;;;18.33;53.89;101927.66;143717;985;47008;-70
2022/10/23 01:41:03;;;;;;;11.35;9.85;;;;;;;18.30;54.29;101927.25;143715;978;47004;-70
2022/10/23 01:43:42;;;;;;;13.82;10.10;;;;;;;18.32;53.31;101919.72;143718;573;47009;-71
2022/10/23 01:46:13;;;;;;;11.98;10.32;;;;;;;18.33;53.22;101916.78;143715;825;47004;-70
2022/10/23 01:48:42;;;;;;;13.70;10.05;;;;;;;18.29;53.48;101906.56;143718;572;47010;-70
2022/10/23 01:51:12;;;;;;;14.35;10.18;;;;;;;18.33;53.52;101908.63;143717;701;47006;-70
2022/10/23 01:53:41;;;;;;;15.75;9.65;;;;;;;18.33;53.47;101907.78;143716;942;47004;-71
2022/10/23 01:56:12;;;;;;;11.90;8.88;;;;;;;18.32;53.68;101908.84;143715;787;47006;-70
2022/10/23 01:58:42;;;;;;;13.32;9.32;;;;;;;18.29;53.36;101912.84;143716;569;47004;-70
2022/10/23 02:01:10;;;;;;;11.85;9.88;;;;;;;18.28;53.33;101908.44;143715;572;47006;-70
2022/10/23 02:03:38;;;;;;;13.95;10.18;;;;;;;18.28;53.58;101908.44;143718;982;47008;-70
2022/10/23 02:06:05;;;;;;;12.13;9.27;;;;;;;18.28;53.55;101913.88;143712;620;47004;-70
2022/10/23 02:08:32;;;;;;;10.90;9.00;;;;;;;18.27;53.89;101906.78;143716;969;47010;-70
2022/10/23 02:11:27;;;;;;;11.82;9.95;;;;;;;18.29;53.61;101915.56;143717;597;47006;-71
2022/10/23 02:14:10;;;;;;;12.25;8.95;;;;;;;18.29;53.50;101912.00;143718;982;47009;-70
2022/10/23 02:17:00;;;;;;;12.57;9.52;;;;;;;18.26;53.62;101902.41;143717;616;47006;-70
2022/10/23 02:19:40;;;;;;;10.20;9.20;;;;;;;18.23;54.13;101908.28;143717;570;47010;-70
2022/10/23 02:22:15;;;;;;;12.73;9.65;;;;;;;18.20;53.92;101914.16;143715;977;47006;-70
2022/10/23 02:24:50;;;;;;;12.52;9.00;;;;;;;18.18;54.26;101916.25;143717;803;46008;-70
2022/10/23 02:27:30;;;;;;;11.95;9.20;;;;;;;18.15;53.58;101906.66;143717;926;46996;-70
2022/10/23 02:30:07;;;;;;;10.45;9.35;;;;;;;18.14;54.05;101906.91;143718;972;47010;-70
2022/10/23 02:32:34;;;;;;;11.02;8.60;;;;;;;18.14;54.08;101909.59;143715;848;47004;-70
2022/10/23 02:35:01;;;;;;;11.12;8.38;;;;;;;18.11;53.54;101901.88;143715;591;47009;-70
2022/10/23 02:37:27;;;;;;;15.50;8.52;;;;;;;18.09;53.98;101912.97;143719;596;47002;-70
2022/10/23 02:39:54;;;;;;;11.43;8.43;;;;;;;18.06;53.47;101907.16;143713;586;49004;-70
2022/10/23 02:42:39;;;;;;;13.10;9.07;;;;;;;18.07;53.55;101901.50;143715;589;47008;-70
2022/10/23 02:45:19;;;;;;;9.52;8.60;;;;;;;18.05;53.93;101911.75;143715;576;47008;-70
2022/10/23 02:48:18;;;;;;;13.02;9.73;;;;;;;18.05;54.04;101908.19;143716;963;47004;-70
2022/10/23 02:51:06;;;;;;;14.60;8.93;;;;;;;18.02;53.95;101909.47;143717;592;47011;-70
2022/10/23 02:53:57;;;;;;;14.57;9.07;;;;;;;17.97;53.81;101904.69;143717;572;47004;-70
2022/10/23 02:56:45;;;;;;;11.57;8.35;;;;;;;17.97;53.79;101903.81;143718;573;47008;-70
2022/10/23 02:59:23;;;;;;;11.90;9.23;;;;;;;17.97;54.05;101899.25;143716;983;47004;-70
2022/10/23 03:02:08;;;;;;;12.25;9.05;;;;;;;17.97;53.85;101903.81;143714;584;47012;-70
2022/10/23 03:04:34;;;;;;;;;;;;;;;17.95;54.44;101908.66;143720;978;47006;-70
2022/10/23 03:07:01;;;;;;;9.93;8.93;;;;;;;18.00;54.19;101908.84;143727;568;47010;-70
2022/10/23 03:09:28;;;;;;;10.70;8.90;;;;;;;17.98;53.96;101916.41;143716;566;47006;-70
2022/10/23 03:11:54;;;;;;;10.80;9.10;;;;;;;17.97;54.19;101923.69;143719;977;47011;-70
2022/10/23 03:14:20;;;;;;;10.93;8.48;;;;;;;17.93;54.19;101933.34;143716;601;47006;-70
2022/10/23 03:16:47;;;;;;;11.38;8.90;;;;;;;17.92;53.65;101931.66;143717;700;47008;-70
2022/10/23 03:19:13;;;;;;;11.50;9.05;;;;;;;17.92;53.78;101928.94;143715;972;47005;-70
2022/10/23 03:21:39;;;;;;;11.40;9.93;;;;;;;17.93;54.13;101927.06;143718;970;47010;-70
2022/10/23 03:24:06;;;;;;;14.95;9.80;;;;;;;17.94;53.85;101937.72;143717;635;47004;-70
2022/10/23 03:26:33;;;;;;;13.70;8.80;;;;;;;17.94;53.89;101936.88;143717;762;47009;-70
2022/10/23 03:28:59;;;;;;;11.55;8.70;;;;;;;17.91;54.08;101937.34;143718;585;47006;-70
2022/10/23 03:31:25;;;;;;;11.30;8.73;;;;;;;17.90;53.86;101935.66;143715;986;47012;-70
2022/10/23 03:33:51;;;;;;;9.77;8.00;;;;;;;17.89;54.04;101934.81;143716;585;47010;-70
2022/10/23 03:36:18;;;;;;;12.85;8.23;;;;;;;17.90;53.36;101930.22;143719;973;47008;-70
2022/10/23 03:38:44;;;;;;;11.00;8.52;;;;;;;17.91;53.69;101935.44;143717;984;47004;-70
2022/10/23 03:41:10;;;;;;;10.23;7.50;;;;;;;17.91;53.12;101937.34;143717;653;47012;-71
2022/10/23 03:43:37;;;;;;;13.98;7.95;;;;;;;17.91;53.57;101934.63;143719;595;46012;-70
2022/10/23 03:46:08;;;;;;;11.77;8.68;;;;;;;17.89;53.76;101932.09;143716;616;47922;-70
2022/10/23 03:48:37;;;;;;;9.98;8.18;;;;;;;17.88;53.86;101931.28;143718;588;47006;-70
2022/10/23 03:51:05;;;;;;;11.38;8.80;;;;;;;17.90;53.45;101938.37;143712;584;47013;-70
2022/10/23 03:53:31;;;;;;;9.00;7.95;;;;;;;17.89;54.03;101940.25;143716;797;47006;-70
2022/10/23 03:55:58;;;;;;;10.20;8.25;;;;;;;17.89;53.82;101953.84;143718;597;47008;-70
2022/10/23 03:58:24;;;;;;;11.90;8.07;;;;;;;17.85;53.90;101952.59;143718;639;47006;-70
2022/10/23 04:00:50;;;;;;;10.20;7.97;;;;;;;17.82;53.66;101951.16;143717;566;47012;-70
2022/10/23 04:03:17;;;;;;;10.07;8.30;;;;;;;17.82;53.90;101942.19;143715;608;47006;-70
2022/10/23 04:05:43;;;;;;;10.77;8.10;;;;;;;17.78;53.67;101949.91;143719;591;47009;-70
2022/10/23 04:08:10;;;;;;;15.75;8.45;;;;;;;17.80;53.64;101957.88;143719;721;47002;-70
2022/10/23 04:10:36;;;;;;;12.02;8.35;;;;;;;17.78;53.96;101952.63;143715;946;47012;-70
2022/10/23 04:13:02;;;;;;;10.27;8.13;;;;;;;17.76;53.94;101949.31;143718;595;47004;-70
2022/10/23 04:15:29;;;;;;;12.63;8.18;;;;;;;17.77;54.18;101955.59;143716;905;47008;-70
2022/10/23 04:17:55;;;;;;;16.77;9.13;;;;;;;17.76;53.74;101946.59;143717;921;47004;-70
2022/10/23 04:20:22;;;;;;;13.98;8.27;;;;;;;17.79;54.16;101953.50;143717;573;47011;-70
2022/10/23 04:22:48;;;;;;;9.50;8.52;;;;;;;17.77;53.91;101948.25;143715;872;47004;-69
2022/10/23 04:25:15;;;;;;;12.25;9.18;;;;;;;17.77;53.89;101961.03;143714;727;47005;-70
2022/10/23 04:27:41;;;;;;;11.23;8.60;;;;;;;17.74;54.00;101956.84;143717;673;47002;-70
2022/10/23 04:30:09;;;;;;;9.93;8.27;;;;;;;17.72;54.00;101954.34;143717;648;47008;-70
2022/10/23 04:32:35;;;;;;;10.90;8.23;;;;;;;17.72;54.07;101956.25;143717;581;47004;-70
2022/10/23 04:35:02;;;;;;;13.07;8.00;;;;;;;17.72;54.42;101951.63;143719;723;47006;-70
2022/10/23 04:37:28;;;;;;;11.05;8.48;;;;;;;17.69;54.13;101949.34;143715;973;47002;-70
2022/10/23 04:39:55;;;;;;;12.93;9.13;;;;;;;17.68;54.38;101952.28;143716;962;47010;-70
2022/10/23 04:42:21;;;;;;;13.60;8.77;;;;;;;17.68;54.44;101953.09;143715;645;47004;-69
2022/10/23 04:44:47;;;;;;;16.23;9.93;;;;;;;17.70;54.56;101950.19;143717;573;47006;-70
2022/10/23 04:47:14;;;;;;;15.25;9.63;;;;;;;17.72;54.49;101956.25;143718;984;47002;-70
2022/10/23 04:49:40;;;;;;;12.75;9.45;;;;;;;17.73;54.79;101960.62;143718;972;47010;-70
2022/10/23 04:52:07;;;;;;;13.98;9.38;;;;;;;17.72;54.08;101948.91;143716;567;47004;-71
2022/10/23 04:54:37;;;;;;;15.80;9.82;;;;;;;17.75;54.17;101955.78;143715;607;47006;-70
2022/10/23 04:57:03;;;;;;;13.68;9.35;;;;;;;17.77;54.05;101950.97;143718;978;47005;-70
2022/10/23 04:59:29;;;;;;;12.82;9.27;;;;;;;17.72;54.54;101954.34;143717;942;47010;-70
2022/10/23 05:01:56;;;;;;;13.02;9.10;;;;;;;17.75;54.61;101946.81;143717;635;47004;-71
2022/10/23 05:04:22;;;;;;;14.73;8.88;;;;;;;17.75;54.18;101947.63;143716;597;46924;-70
2022/10/23 05:06:48;;;;;;;14.65;8.77;;;;;;;17.77;53.75;101944.72;143716;617;47002;-70
2022/10/23 05:09:15;;;;;;;16.25;8.82;;;;;;;17.75;53.71;101952.25;143717;985;47004;-70
2022/10/23 05:11:41;;;;;;;12.90;7.87;;;;;;;17.75;53.55;101952.25;143715;589;47004;-70
2022/10/23 05:14:07;;;;;;;11.32;8.07;;;;;;;17.75;53.65;101946.81;143717;588;47000;-70
2022/10/23 05:16:42;;;;;;;12.23;8.25;;;;;;;17.74;53.25;101951.41;143718;719;47002;-70
2022/10/23 05:19:13;;;;;;;12.00;8.15;;;;;;;17.76;53.83;101960.16;143717;815;47009;-70
2022/10/23 05:21:40;;;;;;;12.85;9.25;;;;;;;17.80;54.14;101964.12;143716;613;47004;-69
2022/10/23 05:24:07;;;;;;;13.55;9.15;;;;;;;17.84;53.54;101959.94;143717;599;47004;-70
2022/10/23 05:26:34;;;;;;;13.68;9.10;;;;;;;17.89;53.94;101951.13;143723;848;46007;-69
2022/10/23 05:29:01;;;;;;;16.62;9.68;;;;;;;17.96;53.41;101954.66;143716;851;47008;-68
2022/10/23 05:31:28;;;;;;;14.25;9.52;;;;;;;18.00;54.10;101958.59;143718;898;47002;-67
2022/10/23 05:33:55;;;;;;;15.48;9.15;;;;;;;18.05;54.05;101966.13;143715;986;47004;-70
2022/10/23 05:36:24;;;;;;;13.43;10.07;;;;;;;18.07;54.34;101969.47;143718;707;47004;-70
2022/10/23 05:38:50;;;;;;;14.00;9.80;;;;;;;18.12;54.19;101977.78;143718;567;47010;-70
2022/10/23 05:41:17;;;;;;;11.93;9.85;;;;;;;18.12;53.91;101974.25;143718;971;47004;-71
2022/10/23 05:43:45;;;;;;;14.38;9.32;;;;;;;18.12;54.09;101972.34;143716;598;46006;-71
2022/10/23 05:46:11;;;;;;;11.25;10.02;;;;;;;18.16;54.39;101980.94;143716;578;47002;-70
2022/10/23 05:48:38;;;;;;;11.90;9.07;;;;;;;18.18;54.45;101984.22;143723;585;47009;-69
2022/10/23 05:51:06;;;;;;;12.00;8.60;;;;;;;18.20;54.04;101976.69;143714;977;47004;-69
2022/10/23 05:53:32;;;;;;;12.57;9.50;;;;;;;18.28;53.82;101986.47;143718;576;47006;-69
2022/10/23 05:56:06;;;;;;;13.68;9.75;;;;;;;18.34;54.05;101985.59;143716;736;47002;-69
2022/10/23 05:58:33;;;;;;;14.00;9.80;;;;;;;18.38;54.14;101984.12;143719;974;47004;-69
2022/10/23 06:01:05;;;;;;;13.52;9.52;;;;;;;18.43;54.37;101991.62;143716;973;47004;-69
2022/10/23 06:03:31;;;;;;;16.48;9.85;;;;;;;18.44;54.21;101990.56;143719;670;47006;-69
2022/10/23 06:05:58;;;;;;;12.48;9.90;;;;;;;18.44;54.47;101990.56;143717;645;47002;-69
2022/10/23 06:08:24;;;;;;;22.00;11.55;;;;;;;18.50;54.31;101986.97;143718;568;47008;-69
2022/10/23 06:10:50;;;;;;;15.30;10.93;;;;;;;18.54;54.59;101995.50;143715;863;47005;-70
2022/10/23 06:13:16;;;;;;;15.30;11.15;;;;;;;18.59;54.11;101990.25;143719;572;47006;-69
2022/10/23 06:15:43;;;;;;;25.37;18.48;;;;;;;18.64;54.37;101996.69;143715;972;48002;-70
2022/10/23 06:18:09;;;;;;;36.95;23.12;;;;;;;18.69;54.91;102000.66;143718;972;48009;-69
2022/10/23 06:20:37;;;;;;;30.42;20.58;;;;;;;18.68;54.67;102005.25;143720;935;46012;-69
2022/10/23 06:23:04;;;;;;;27.10;19.48;;;;;;;18.72;54.80;102000.19;143716;579;47006;-69
2022/10/23 06:25:30;;;;;;;20.55;13.45;;;;;;;18.73;53.38;101993.69;143718;973;47002;-69
2022/10/23 06:27:57;;;;;;;20.30;14.05;;;;;;;18.73;53.71;101994.53;143717;675;47008;-69
2022/10/23 06:30:23;;;;;;;23.70;14.10;;;;;;;18.74;53.89;101993.47;143712;621;49004;-69
2022/10/23 06:32:50;;;;;;;20.40;14.05;;;;;;;18.74;53.55;101992.63;143713;950;47006;-69
2022/10/23 06:35:16;;;;;;;20.60;14.45;;;;;;;18.72;53.80;101992.00;143717;578;47002;-69
2022/10/23 06:37:42;;;;;;;21.83;14.07;;;;;;;18.70;54.09;101988.69;143714;985;47008;-69
2022/10/23 06:40:09;;;;;;;20.75;14.27;;;;;;;18.70;53.66;101985.97;143715;978;47004;-69
2022/10/23 06:42:35;;;;;;;21.58;14.57;;;;;;;18.70;53.92;101983.25;143718;973;47006;-69
2022/10/23 06:45:02;;;;;;;23.23;15.55;;;;;;;18.71;53.07;101991.19;143717;628;47004;-69
2022/10/23 06:47:28;;;;;;;18.40;14.20;;;;;;;18.75;53.35;101995.16;143717;985;47009;-69
2022/10/23 06:49:55;;;;;;;23.73;15.35;;;;;;;18.82;52.75;101996.94;143716;580;47008;-70
2022/10/23 06:52:21;;;;;;;25.17;16.05;;;;;;;18.86;52.88;102003.63;143719;631;47006;-70
2022/10/23 06:54:50;;;;;;;22.40;16.80;;;;;;;18.93;52.95;102004.41;143717;573;47004;-69
2022/10/23 06:57:16;;;;;;;22.45;16.50;;;;;;;19.00;53.45;102002.47;143720;645;46008;-71
2022/10/23 06:59:43;;;;;;;24.08;17.17;;;;;;;19.12;53.01;102008.03;143718;573;47004;-69
2022/10/23 07:02:09;;;;;;;18.15;16.25;;;;;;;19.20;53.00;101996.84;143716;583;47007;-69
2022/10/23 07:04:36;;;;;;;24.20;16.05;;;;;;;19.32;51.89;101999.66;143719;581;47000;-69
2022/10/23 07:07:02;;;;;;;20.12;16.75;;;;;;;19.43;51.80;102008.12;143720;603;46008;-69
2022/10/23 07:09:28;;;;;;;24.85;17.62;;;;;;;19.54;51.70;102007.38;143715;831;47004;-69
2022/10/23 07:11:55;;;;;;;20.42;17.12;;;;;;;19.63;50.86;102013.34;143719;985;47006;-70
2022/10/23 07:14:21;;;;;;;23.70;16.37;;;;;;;19.71;50.75;102015.78;143718;570;47004;-70
2022/10/23 07:16:48;;;;;;;25.30;16.02;;;;;;;19.81;50.45;102012.53;143717;986;47008;-70
2022/10/23 07:19:14;;;;;;;18.95;15.18;;;;;;;19.90;50.62;102013.06;143715;973;47004;-69
2022/10/23 07:21:40;;;;;;;26.17;16.20;;;;;;;20.00;50.15;102024.25;143717;710;47006;-70
2022/10/23 07:24:07;;;;;;;18.87;14.87;;;;;;;20.12;50.18;102019.66;143718;689;47002;-70
2022/10/23 07:26:33;;;;;;;15.27;13.55;;;;;;;20.24;49.83;102032.53;143717;815;47922;-70
2022/10/23 07:29:00;;;;;;;17.30;14.38;;;;;;;20.34;49.24;102029.25;143715;934;47004;-70
2022/10/23 07:31:26;;;;;;;21.67;13.35;;;;;;;20.42;49.17;102029.75;143716;583;47006;-70
2022/10/23 07:33:53;;;;;;;28.05;23.65;;;;;;;20.53;48.77;102025.41;143717;910;47002;-70
2022/10/23 07:36:19;;;;;;;19.77;13.82;;;;;;;20.64;49.15;102031.94;143717;649;47004;-70
2022/10/23 07:38:45;;;;;;;34.92;26.05;;;;;;;20.75;48.38;102022.97;143715;576;47004;-70
2022/10/23 07:41:12;;;;;;;21.55;16.25;;;;;;;20.88;48.61;102021.06;143717;596;47007;-71
2022/10/23 07:43:39;;;;;;;38.60;28.52;;;;;;;20.98;48.44;102024.06;143720;980;47000;-70
2022/10/23 07:46:08;;;;;;;18.50;15.82;;;;;;;21.09;48.39;102019.66;143715;593;47008;-71
2022/10/23 07:48:38;;;;;;;23.08;14.35;;;;;;;21.21;48.25;102016.91;143716;575;47004;-70
2022/10/23 07:51:10;;;;;;;26.52;19.12;;;;;;;21.32;47.96;102013.37;143717;567;47000;-72
2022/10/23 07:53:37;;;;;;;16.58;12.80;;;;;;;21.44;47.42;102015.25;143716;911;47003;-71
2022/10/23 07:56:11;;;;;;;15.18;12.40;;;;;;;21.57;46.58;102011.41;143717;683;47008;-71
2022/10/23 07:58:38;;;;;;;16.67;10.77;;;;;;;21.65;46.82;102006.44;143716;671;47004;-71
2022/10/23 08:01:22;;;;;;;19.30;11.48;;;;;;;21.78;46.50;102016.28;143717;597;47000;-71
2022/10/23 08:03:49;;;;;;;37.72;28.08;;;;;;;21.90;46.71;102009.94;143715;898;47002;-71
2022/10/23 08:06:15;;;;;;;17.33;12.27;;;;;;;21.98;45.50;102003.22;143714;584;47008;-71
2022/10/23 08:08:42;;;;;;;22.20;13.00;;;;;;;22.09;44.79;102002.34;143717;582;47004;-71
2022/10/23 08:11:12;;;;;;;16.12;11.88;;;;;;;22.18;44.94;102011.81;143714;563;47006;-72
2022/10/23 08:13:38;;;;;;;14.27;11.30;;;;;;;22.36;44.52;102010.78;143714;576;47004;-71
2022/10/23 08:16:05;;;;;;;18.05;12.20;;;;;;;22.47;45.08;102009.06;143717;567;47008;-70
2022/10/23 08:18:32;;;;;;;16.55;11.50;;;;;;;22.56;43.66;102009.50;143714;585;47004;-71
2022/10/23 08:21:03;;;;;;;15.25;11.60;;;;;;;22.59;43.83;102008.19;143717;592;46924;-72
2022/10/23 08:23:29;;;;;;;19.65;13.60;;;;;;;22.73;43.73;102012.25;143712;573;47004;-71
2022/10/23 08:26:00;;;;;;;14.10;11.95;;;;;;;22.87;43.52;102007.25;143718;649;46011;-71
2022/10/23 08:28:27;;;;;;;16.65;13.77;;;;;;;22.96;43.88;102005.75;143714;702;47004;-71
2022/10/23 08:30:55;;;;;;;15.60;11.48;;;;;;;23.11;42.97;102005.16;143710;584;47006;-71
2022/10/23 08:33:21;;;;;;;22.17;19.30;;;;;;;23.25;42.99;102005.66;143715;756;47004;-71
2022/10/23 08:35:47;;;;;;;14.70;13.10;;;;;;;23.35;43.06;102013.19;143717;566;47008;-68
2022/10/23 08:38:14;;;;;;;21.58;12.88;;;;;;;23.45;43.07;102002.38;143715;600;47002;-68
2022/10/23 08:40:46;;;;;;;33.15;26.05;;;;;;;23.58;42.55;102008.53;143717;579;47006;-65
2022/10/23 08:43:39;;;;;;;22.42;18.00;;;;;;;23.72;41.81;102007.06;143715;657;47002;-65
2022/10/23 08:46:13;;;;;;;45.58;37.67;;;;;;;23.88;42.94;102015.47;143715;654;47010;-65
2022/10/23 08:48:51;;;;;;;16.30;12.43;;;;;;;23.89;42.30;102015.22;143714;605;47004;-66
2022/10/23 08:51:28;;;;;;;18.98;14.98;;;;;;;23.98;42.21;102023.03;143716;657;47000;-66
2022/10/23 08:54:11;;;;;;;16.83;12.98;;;;;;;24.12;41.68;102024.25;143718;598;47000;-66
2022/10/23 08:56:40;;;;;;;18.45;15.05;;;;;;;24.26;41.32;102021.13;143717;573;47008;-66
2022/10/23 08:59:32;;;;;;;20.90;14.35;;;;;;;24.44;41.08;102012.53;143712;705;47012;-65
2022/10/23 09:02:23;;;;;;;18.00;12.93;;;;;;;24.59;40.40;102016.47;143716;581;47007;-65
2022/10/23 09:04:52;;;;;;;20.10;14.02;;;;;;;24.83;40.45;102011.47;143716;573;47002;-65
2022/10/23 09:07:42;;;;;;;17.75;12.63;;;;;;;25.15;40.58;102005.06;143716;576;47008;-65
2022/10/23 09:10:51;;;;;;;20.33;12.40;;;;;;;25.56;39.93;102008.06;143713;600;47004;-66
2022/10/23 09:14:07;;;;;;;22.23;13.93;;;;;;;26.59;38.40;102007.44;143717;720;47006;-66
2022/10/23 09:17:23;;;;;;;14.40;11.85;;;;;;;32.36;28.45;101999.03;143714;641;47004;-66
2022/10/23 09:20:01;;;;;;;16.17;11.95;;;;;;;35.47;23.67;101987.31;143716;740;47008;-65
2022/10/23 09:22:27;;;;;;;19.40;12.65;;;;;;;37.31;21.33;101979.78;143715;580;47004;-66
2022/10/23 09:24:54;;;;;;;17.27;13.55;;;;;;;38.58;21.12;101986.16;143717;624;47007;-66
2022/10/23 09:27:20;;;;;;;21.37;13.40;;;;;;;39.69;19.76;101981.56;143715;588;47000;-66
2022/10/23 09:29:54;;;;;;;16.45;11.80;;;;;;;40.64;18.27;101967.28;143716;635;47010;-66
2022/10/23 09:32:31;;;;;;;;;;;;;;;41.41;17.84;101963.56;143719;978;47004;-66
2022/10/23 09:34:58;;;;;;;19.70;12.37;;;;;;;42.17;16.52;101968.09;143725;588;47008;-66
2022/10/23 09:37:27;;;;;;;17.83;13.62;;;;;;;42.57;16.49;101966.47;143715;569;47002;-70
2022/10/23 09:40:27;;;;;;;17.45;12.73;;;;;;;42.74;16.35;101975.47;143714;698;47009;-70
2022/10/23 09:42:59;;;;;;;20.60;12.73;;;;;;;42.07;16.76;101961.12;143715;569;47004;-70
2022/10/23 09:45:36;;;;;;;17.48;12.60;;;;;;;38.32;21.16;101959.44;143717;568;46006;-70
2022/10/23 09:48:15;;;;;;;16.85;11.75;;;;;;;36.36;23.37;101961.03;143716;570;47002;-70
2022/10/23 09:51:14;;;;;;;17.85;12.40;;;;;;;35.21;25.08;101957.56;143715;715;47010;-69
2022/10/23 09:54:15;;;;;;;19.35;12.40;;;;;;;35.46;24.54;101952.16;143715;567;47004;-69
2022/10/23 09:56:47;;;;;;;16.90;11.82;;;;;;;39.12;20.74;101948.19;143716;576;47006;-70
2022/10/23 09:59:33;;;;;;;17.92;13.18;;;;;;;40.95;18.37;101937.16;143713;577;47002;-69
2022/10/23 10:02:04;;;;;;;13.60;12.18;;;;;;;40.49;18.62;101935.22;143716;567;47010;-69
2022/10/23 10:04:38;;;;;;;19.20;12.68;;;;;;;38.46;21.27;101936.59;143715;578;47002;-71
2022/10/23 10:07:23;;;;;;;16.87;12.02;;;;;;;36.40;23.23;101933.19;143709;607;50004;-69
2022/10/23 10:09:51;;;;;;;19.45;11.95;;;;;;;35.09;24.90;101933.16;143718;567;46006;-68
2022/10/23 10:12:54;;;;;;;18.02;12.18;;;;;;;34.27;26.14;101934.13;143714;584;47010;-69
2022/10/23 10:15:41;;;;;;;17.73;13.13;;;;;;;33.63;26.58;101927.28;143715;597;47004;-69
2022/10/23 10:18:20;;;;;;;15.05;11.63;;;;;;;32.95;27.83;101922.94;143718;644;46019;-68
2022/10/23 10:21:17;;;;;;;19.73;11.88;;;;;;;32.34;29.12;101920.66;143716;574;47002;-69
2022/10/23 10:24:05;;;;;;;16.98;11.32;;;;;;;31.80;30.20;101907.53;143717;616;46010;-70
2022/10/23 10:27:17;;;;;;;12.75;10.63;;;;;;;31.28;29.98;101916.22;143714;580;47004;-70
2022/10/23 10:30:34;;;;;;;13.57;10.25;;;;;;;30.88;31.15;101911.22;143717;721;47006;-69
2022/10/23 10:33:39;;;;;;;13.62;11.32;;;;;;;30.51;31.89;101907.47;143717;649;47004;-69
2022/10/23 10:36:30;;;;;;;14.38;11.23;;;;;;;30.24;33.24;101912.66;143717;680;47008;-69
2022/10/23 10:39:00;;;;;;;23.05;13.65;;;;;;;30.01;34.46;101902.53;143712;607;47004;-68
2022/10/23 10:41:50;;;;;;;17.77;12.00;;;;;;;29.76;34.99;101894.31;143717;692;47006;-70
2022/10/23 10:45:19;;;;;;;19.48;12.55;;;;;;;29.68;35.63;101896.94;143715;704;47004;-68
2022/10/23 10:48:40;;;;;;;17.08;12.37;;;;;;;29.53;36.18;101879.44;143717;581;47008;-69
2022/10/23 10:51:37;;;;;;;16.20;13.77;;;;;;;29.46;36.39;101896.41;143714;664;47004;-70
2022/10/23 10:54:45;;;;;;;21.60;17.80;;;;;;;29.27;36.63;101885.28;143717;699;46007;-70
2022/10/23 10:57:37;;;;;;;19.15;14.23;;;;;;;29.12;37.37;101882.75;143715;605;47002;-70
2022/10/23 11:00:20;;;;;;;16.50;11.38;;;;;;;29.01;37.20;101891.19;143715;665;47008;-70
2022/10/23 11:02:51;;;;;;;17.33;14.95;;;;;;;28.95;37.97;101883.22;143715;660;47002;-73
2022/10/23 11:05:40;;;;;;;18.08;13.50;;;;;;;28.86;38.25;101885.81;143714;760;47006;-69
2022/10/23 11:08:19;;;;;;;15.07;12.45;;;;;;;28.77;38.02;101887.59;143713;608;47007;-69
2022/10/23 11:10:52;;;;;;;14.25;11.27;;;;;;;28.63;38.22;101879.97;143713;645;47010;-69
2022/10/23 11:13:36;;;;;;;18.77;11.80;;;;;;;28.37;38.55;101883.00;143718;672;47008;-68
2022/10/23 11:16:31;;;;;;;16.65;10.40;;;;;;;28.05;39.22;101875.28;143717;585;47006;-70
2022/10/23 11:19:12;;;;;;;12.43;9.50;;;;;;;27.87;39.18;101869.34;143714;698;47002;-70
2022/10/23 11:22:24;;;;;;;11.38;10.20;;;;;;;27.79;39.15;101876.31;143716;573;47008;-70
2022/10/23 11:25:23;;;;;;;12.30;10.10;;;;;;;27.76;39.27;101876.03;143714;582;47004;-70
2022/10/23 11:28:47;;;;;;;15.13;10.75;;;;;;;27.77;38.88;101872.19;143717;567;47006;-70
2022/10/23 11:31:38;;;;;;;16.77;10.52;;;;;;;27.67;39.17;101873.06;143713;698;47002;-70
2022/10/23 11:34:52;;;;;;;12.93;10.93;;;;;;;27.71;38.83;101870.59;143719;629;46010;-67
2022/10/23 11:37:20;;;;;;;14.05;10.07;;;;;;;27.79;38.92;101868.03;143717;567;46013;-70
2022/10/23 11:40:21;;;;;;;14.13;8.98;;;;;;;27.76;38.76;101856.72;143716;633;46015;-72
2022/10/23 11:42:49;;;;;;;11.88;10.02;;;;;;;27.73;38.38;101860.91;143717;566;47002;-70